Time;durP1;ratioP1;P1;durP2;ratioP2;P2;SDS_P1;SDS_P2;PMS_P1;PMS_P2;Temp;Humidity;BMP_temperature;BMP_pressure;BME280_temperature;BME280_humidity;BME280_pressure;Samples;Min_cycle;Max_cycle;Signal;HPM_P1;HPM_P2
2022/01/14 00:01:21;;;;;;;9.32;2.00;;;7.60;99.90;;;;;;6277218;22;20367;-68
2022/01/14 00:03:48;;;;;;;7.05;2.53;;;7.60;99.90;;;;;;6277232;22;20008;-68
2022/01/14 00:06:15;;;;;;;12.32;1.73;;;7.60;99.90;;;;;;6276807;22;20118;-69
2022/01/14 00:08:41;;;;;;;5.55;1.48;;;7.60;99.90;;;;;;6276536;22;20020;-68
2022/01/14 00:11:15;;;;;;;6.18;1.85;;;7.50;99.90;;;;;;6276793;22;20342;-69
2022/01/14 00:13:51;;;;;;;5.35;1.48;;;7.40;99.90;;;;;;6276715;22;20015;-68
2022/01/14 00:16:19;;;;;;;6.30;1.88;;;7.30;99.90;;;;;;6276854;22;20011;-68
2022/01/14 00:18:46;;;;;;;6.65;2.28;;;7.20;99.90;;;;;;6276739;22;20463;-68
2022/01/14 00:21:13;;;;;;;10.82;1.50;;;7.10;99.90;;;;;;6249719;22;20004;-68
2022/01/14 00:23:41;;;;;;;10.25;2.08;;;7.10;99.90;;;;;;6276631;22;20310;-68
2022/01/14 00:32:48;;;;;;;3.35;1.70;;;7.00;99.90;;;;;;6277183;22;20008;-68
2022/01/14 00:34:34;;;;;;;9.95;2.08;;;7.10;99.90;;;;;;6256545;22;20004;-68
2022/01/14 00:37:01;;;;;;;9.68;2.15;;;7.20;99.90;;;;;;6276582;22;20008;-68
2022/01/14 00:39:28;;;;;;;5.82;1.63;;;7.10;99.90;;;;;;6276542;22;20344;-68
2022/01/14 00:41:55;;;;;;;3.50;1.30;;;7.10;99.90;;;;;;6276696;22;20070;-68
2022/01/14 00:44:22;;;;;;;12.63;1.83;;;7.10;99.90;;;;;;6249503;22;20007;-68
2022/01/14 00:46:50;;;;;;;5.82;2.47;;;7.10;99.90;;;;;;6277684;22;20035;-68
2022/01/14 00:49:20;;;;;;;7.55;2.65;;;7.10;99.90;;;;;;6278629;22;20057;-68
2022/01/14 00:51:48;;;;;;;5.18;1.70;;;7.10;99.90;;;;;;6278498;22;20435;-68
2022/01/14 00:54:16;;;;;;;11.10;1.63;;;7.10;99.90;;;;;;6278581;22;20030;-68
2022/01/14 00:59:15;;;;;;;3.90;1.67;;;7.10;99.90;;;;;;6278503;22;20011;-68
2022/01/14 01:01:44;;;;;;;5.18;2.30;;;7.00;99.90;;;;;;6278907;22;19999;-68
2022/01/14 01:04:13;;;;;;;10.35;2.40;;;7.10;99.90;;;;;;6278427;22;20030;-68
2022/01/14 01:06:41;;;;;;;11.30;2.20;;;7.10;99.90;;;;;;6278347;22;20008;-68
2022/01/14 01:09:13;;;;;;;7.50;1.60;;;7.00;99.90;;;;;;6278254;22;20157;-68
2022/01/14 01:11:51;;;;;;;5.57;2.28;;;7.00;99.90;;;;;;6278781;22;20007;-68
2022/01/14 01:14:25;;;;;;;6.72;1.40;;;7.00;99.90;;;;;;6278415;22;20010;-68
2022/01/14 01:16:52;;;;;;;6.65;2.22;;;6.90;99.90;;;;;;6278273;22;20061;-68
2022/01/14 01:19:19;;;;;;;6.97;1.38;;;6.90;99.90;;;;;;6278248;22;20011;-68
2022/01/14 01:21:45;;;;;;;5.90;1.75;;;6.90;99.90;;;;;;6251295;22;20004;-68
2022/01/14 01:24:14;;;;;;;8.85;2.42;;;6.80;99.90;;;;;;6278289;22;20010;-68
2022/01/14 01:26:44;;;;;;;11.35;2.20;;;6.70;99.90;;;;;;6278244;22;20035;-68
2022/01/14 01:31:42;;;;;;;10.82;2.30;;;6.70;99.90;;;;;;6278217;22;20022;-68
2022/01/14 01:34:19;;;;;;;7.45;2.28;;;6.60;99.90;;;;;;6278149;22;20010;-68
2022/01/14 01:36:48;;;;;;;4.32;1.48;;;6.50;99.90;;;;;;6252831;22;20008;-67
2022/01/14 01:39:18;;;;;;;6.75;1.75;;;6.50;99.90;;;;;;6277994;22;20090;-68
2022/01/14 01:41:51;;;;;;;8.20;2.53;;;6.50;99.90;;;;;;6278073;22;20004;-68
2022/01/14 01:44:20;;;;;;;4.13;1.50;;;6.50;99.90;;;;;;6276634;22;20008;-68
2022/01/14 01:46:48;;;;;;;5.00;2.05;;;6.50;99.90;;;;;;6277881;22;20031;-68
2022/01/14 01:49:41;;;;;;;7.47;2.75;;;6.40;99.90;;;;;;6277989;22;20007;-68
2022/01/14 01:52:08;;;;;;;10.35;2.20;;;6.40;99.90;;;;;;6125877;23;20053;-67
2022/01/14 01:54:35;;;;;;;9.15;2.00;;;6.40;99.90;;;;;;6125186;23;20002;-68
2022/01/14 01:57:02;;;;;;;6.97;1.73;;;6.40;99.90;;;;;;6125195;23;20010;-68
2022/01/14 01:59:30;;;;;;;4.40;1.95;;;6.40;99.90;;;;;;6124797;23;20010;-68
2022/01/14 02:02:01;;;;;;;6.43;1.70;;;6.30;99.90;;;;;;6125094;23;20013;-68
2022/01/14 02:04:29;;;;;;;3.88;1.50;;;6.30;99.90;;;;;;6125232;23;20006;-68
2022/01/14 02:06:57;;;;;;;9.55;2.30;;;6.30;99.90;;;;;;6125182;23;20010;-68
2022/01/14 02:09:24;;;;;;;7.45;1.98;;;6.30;99.90;;;;;;6124975;23;20026;-67
2022/01/14 02:11:51;;;;;;;7.32;2.20;;;6.20;99.90;;;;;;6124983;23;20013;-68
2022/01/14 02:18:02;;;;;;;4.40;1.45;;;6.10;99.90;;;;;;6125326;23;20017;-68
2022/01/14 02:23:00;;;;;;;6.38;1.60;;;6.10;99.90;;;;;;6125168;23;20010;-67
2022/01/14 02:25:29;;;;;;;6.38;1.67;;;6.00;99.90;;;;;;6124990;23;20332;-68
2022/01/14 02:28:13;;;;;;;16.23;2.70;;;6.00;99.90;;;;;;6113970;23;20010;-68
2022/01/14 02:30:43;;;;;;;5.80;1.73;;;6.00;99.90;;;;;;6246972;23;20008;-68
2022/01/14 02:33:11;;;;;;;5.85;1.58;;;6.00;99.90;;;;;;6246941;22;20000;-68
2022/01/14 02:35:41;;;;;;;4.80;2.05;;;5.90;99.90;;;;;;6247283;23;20008;-68
2022/01/14 02:38:11;;;;;;;3.58;1.92;;;5.90;99.90;;;;;;6246941;22;20011;-68
2022/01/14 02:40:40;;;;;;;3.50;1.65;;;5.90;99.90;;;;;;6246912;22;20023;-68
2022/01/14 02:43:12;;;;;;;6.45;1.98;;;5.90;99.90;;;;;;6246753;22;20020;-68
2022/01/14 02:45:40;;;;;;;6.13;2.05;;;5.90;99.90;;;;;;6247147;23;20454;-68
2022/01/14 02:48:07;;;;;;;4.40;1.83;;;5.80;99.90;;;;;;6246965;22;20441;-67
2022/01/14 02:50:53;;;;;;;4.35;1.77;;;5.80;99.90;;;;;;6246776;23;20011;-68
2022/01/14 02:54:25;;;;;;;3.13;1.80;;;5.80;99.90;;;;;;6246806;23;20008;-68
2022/01/14 02:56:24;;;;;;;8.43;1.98;;;5.80;99.90;;;;;;6219558;23;20015;-68
2022/01/14 02:58:56;;;;;;;5.50;2.25;;;5.90;99.90;;;;;;6246580;22;20099;-67
2022/01/14 03:01:25;;;;;;;5.38;1.95;;;5.80;99.90;;;;;;6245317;23;20009;-67
2022/01/14 03:03:59;;;;;;;7.40;2.08;;;5.80;99.90;;;;;;6246593;22;20014;-67
2022/01/14 03:06:28;;;;;;;5.82;1.80;;;5.80;99.90;;;;;;6246705;22;20050;-68
2022/01/14 03:09:01;;;;;;;8.32;2.20;;;5.80;99.90;;;;;;6261522;22;20085;-68
2022/01/14 03:11:35;;;;;;;9.75;2.88;;;5.80;99.90;;;;;;6277205;22;20008;-68
2022/01/14 03:14:03;;;;;;;5.85;2.05;;;5.70;99.90;;;;;;6277145;22;20429;-67
2022/01/14 03:16:37;;;;;;;7.65;3.05;;;5.70;99.90;;;;;;6277112;22;20321;-68
2022/01/14 03:19:08;;;;;;;11.63;3.15;;;5.60;99.90;;;;;;6277188;22;20039;-68
2022/01/14 03:21:42;;;;;;;7.32;3.08;;;5.40;99.90;;;;;;6277541;22;20080;-68
2022/01/14 03:25:35;;;;;;;7.10;3.13;;;5.30;99.90;;;;;;6277213;22;20003;-67
2022/01/14 03:27:08;;;;;;;10.38;2.63;;;5.10;99.90;;;;;;6276904;22;20008;-68
2022/01/14 03:29:35;;;;;;;9.55;2.95;;;5.20;99.90;;;;;;6277433;22;20004;-68
2022/01/14 03:32:03;;;;;;;10.55;3.13;;;5.20;99.90;;;;;;6276976;22;20003;-67
2022/01/14 03:34:34;;;;;;;10.52;4.28;;;5.20;99.90;;;;;;6277107;22;20003;-67
2022/01/14 03:37:00;;;;;;;9.80;2.88;;;5.20;99.90;;;;;;6276786;22;20015;-68
2022/01/14 03:39:27;;;;;;;11.23;3.05;;;5.20;99.90;;;;;;6277113;22;19999;-68
2022/01/14 03:41:54;;;;;;;6.40;2.88;;;5.10;99.90;;;;;;6277442;22;20000;-68
2022/01/14 03:44:24;;;;;;;11.10;3.63;;;5.00;99.90;;;;;;6277123;22;20498;-68
2022/01/14 03:46:51;;;;;;;7.55;2.95;;;5.00;99.90;;;;;;6277059;22;20047;-67
2022/01/14 03:49:20;;;;;;;10.13;3.35;;;4.90;99.90;;;;;;6277059;22;20067;-68
2022/01/14 03:51:50;;;;;;;9.50;2.65;;;4.90;99.90;;;;;;6277332;22;20010;-67
2022/01/14 03:54:17;;;;;;;3.40;2.17;;;4.80;99.90;;;;;;6276932;22;20000;-68
2022/01/14 03:56:47;;;;;;;7.90;2.67;;;4.80;99.90;;;;;;6276838;22;20012;-69
2022/01/14 03:59:14;;;;;;;8.60;2.58;;;4.80;99.90;;;;;;6276822;22;20020;-69
2022/01/14 04:01:41;;;;;;;12.68;3.45;;;4.80;99.90;;;;;;6277033;22;20000;-67
2022/01/14 04:04:08;;;;;;;8.73;3.28;;;4.80;99.90;;;;;;6276981;22;20011;-69
2022/01/14 04:06:34;;;;;;;8.15;2.60;;;4.80;99.90;;;;;;6276913;22;20085;-67
2022/01/14 04:09:01;;;;;;;8.95;2.60;;;4.80;99.90;;;;;;6244467;23;20020;-68
2022/01/14 04:11:33;;;;;;;5.85;2.33;;;4.80;99.90;;;;;;6246196;23;20035;-67
2022/01/14 04:16:57;;;;;;;8.98;2.58;;;4.90;99.90;;;;;;6184030;23;20009;-68
2022/01/14 04:19:32;;;;;;;10.75;2.70;;;4.90;99.90;;;;;;6246085;22;20015;-69
2022/01/14 04:22:02;;;;;;;8.80;2.58;;;4.90;99.90;;;;;;6247363;22;20058;-68
2022/01/14 04:24:28;;;;;;;5.82;2.30;;;4.90;99.90;;;;;;6248207;22;20349;-69
2022/01/14 04:27:01;;;;;;;5.80;2.28;;;5.00;99.90;;;;;;6248675;22;20004;-69
2022/01/14 04:29:27;;;;;;;5.60;2.08;;;5.00;99.90;;;;;;6246647;23;20091;-68
2022/01/14 04:31:54;;;;;;;5.68;2.10;;;5.10;99.90;;;;;;6247998;23;20004;-69
2022/01/14 04:34:21;;;;;;;11.25;2.88;;;5.10;99.90;;;;;;6248180;22;20008;-69
2022/01/14 04:36:47;;;;;;;6.22;1.83;;;5.20;99.90;;;;;;6196189;23;20004;-68
2022/01/14 04:39:14;;;;;;;9.45;2.97;;;5.30;99.90;;;;;;6247961;22;20016;-69
2022/01/14 04:41:41;;;;;;;7.70;2.78;;;5.30;99.90;;;;;;6247028;23;20475;-69
2022/01/14 04:44:08;;;;;;;7.28;2.95;;;5.30;99.90;;;;;;6247981;22;20004;-69
2022/01/14 04:46:48;;;;;;;9.75;2.22;;;5.30;99.90;;;;;;6248052;22;20008;-69
2022/01/14 04:49:16;;;;;;;8.65;2.33;;;5.40;99.90;;;;;;6248037;23;20007;-69
2022/01/14 04:51:43;;;;;;;6.53;2.25;;;5.40;99.90;;;;;;6248001;22;20004;-69
2022/01/14 04:54:13;;;;;;;8.55;2.00;;;5.40;99.90;;;;;;6247896;22;20319;-69
2022/01/14 04:56:40;;;;;;;12.02;2.60;;;5.40;99.90;;;;;;6247888;22;20008;-69
2022/01/14 04:59:07;;;;;;;8.48;2.72;;;5.30;99.90;;;;;;6247663;22;20047;-69
2022/01/14 05:01:34;;;;;;;11.20;2.72;;;5.30;99.90;;;;;;6247820;22;20062;-69
2022/01/14 05:04:04;;;;;;;8.32;2.85;;;5.30;99.90;;;;;;6246294;23;20031;-69
2022/01/14 05:06:31;;;;;;;14.00;3.05;;;5.30;99.90;;;;;;6248793;22;20008;-69
2022/01/14 05:09:05;;;;;;;8.93;2.10;;;5.30;99.90;;;;;;6195562;23;20094;-69
2022/01/14 05:11:41;;;;;;;6.07;3.13;;;5.20;99.90;;;;;;6247886;22;20062;-69
2022/01/14 05:14:08;;;;;;;13.07;2.92;;;5.20;99.90;;;;;;6247764;22;20008;-69
2022/01/14 05:16:34;;;;;;;14.32;2.70;;;5.20;99.90;;;;;;6247652;22;20032;-67
2022/01/14 05:19:02;;;;;;;13.18;3.08;;;5.20;99.90;;;;;;6247674;23;20012;-68
2022/01/14 05:21:28;;;;;;;10.13;3.72;;;5.30;99.90;;;;;;6247760;22;20011;-69
2022/01/14 05:23:56;;;;;;;10.13;2.72;;;5.20;99.90;;;;;;6247741;22;20012;-67
2022/01/14 05:26:23;;;;;;;7.60;2.40;;;5.20;99.90;;;;;;6247472;22;20008;-69
2022/01/14 05:28:57;;;;;;;4.25;2.30;;;5.20;99.90;;;;;;6247611;23;20073;-70
2022/01/14 05:31:43;;;;;;;12.52;3.38;;;5.10;99.90;;;;;;6247480;22;20008;-70
2022/01/14 05:34:10;;;;;;;11.00;3.60;;;5.00;99.90;;;;;;6220823;23;20008;-68
2022/01/14 05:36:37;;;;;;;8.40;3.00;;;4.90;99.90;;;;;;6247530;22;20010;-70
2022/01/14 05:39:05;;;;;;;10.68;3.33;;;4.90;99.90;;;;;;6247466;22;20024;-69
2022/01/14 05:41:32;;;;;;;14.85;3.58;;;4.80;99.90;;;;;;6247454;22;20000;-70
2022/01/14 05:43:59;;;;;;;12.13;3.40;;;4.80;99.90;;;;;;6247531;22;20086;-70
2022/01/14 05:46:26;;;;;;;6.93;3.33;;;4.70;99.90;;;;;;6247860;22;20007;-70
2022/01/14 05:48:53;;;;;;;6.15;2.45;;;4.70;99.90;;;;;;6247413;22;20307;-70
2022/01/14 05:51:20;;;;;;;8.98;2.50;;;4.70;99.90;;;;;;6247572;22;20008;-70
2022/01/14 05:53:46;;;;;;;8.70;3.10;;;4.70;99.90;;;;;;6247217;22;20009;-73
2022/01/14 05:56:13;;;;;;;8.30;3.50;;;4.60;99.90;;;;;;6245997;23;20008;-70
2022/01/14 05:58:40;;;;;;;7.53;2.95;;;4.60;99.90;;;;;;6247187;22;20074;-69
2022/01/14 06:01:07;;;;;;;11.10;3.38;;;4.60;99.90;;;;;;6245841;23;20075;-69
2022/01/14 06:03:33;;;;;;;9.15;3.80;;;4.60;99.90;;;;;;6247366;22;20011;-69
2022/01/14 06:06:00;;;;;;;11.55;3.42;;;4.60;99.90;;;;;;6247198;22;20007;-69
2022/01/14 06:08:27;;;;;;;13.02;3.25;;;4.60;99.90;;;;;;6256071;22;20112;-69
2022/01/14 06:10:53;;;;;;;10.73;3.33;;;4.50;99.90;;;;;;6277844;22;20003;-70
2022/01/14 06:13:20;;;;;;;9.38;3.20;;;4.50;99.90;;;;;;6277710;22;20007;-70
2022/01/14 06:15:47;;;;;;;7.15;2.95;;;4.50;99.90;;;;;;6277768;22;20003;-69
2022/01/14 06:18:14;;;;;;;6.97;3.15;;;4.50;99.90;;;;;;6250492;22;20016;-70
2022/01/14 06:20:40;;;;;;;14.77;3.10;;;4.50;99.90;;;;;;6277596;22;20418;-70
2022/01/14 06:23:07;;;;;;;8.85;2.72;;;4.50;99.90;;;;;;6277575;22;20448;-70
2022/01/14 06:25:33;;;;;;;23.33;3.80;;;4.60;99.90;;;;;;6277685;22;20007;-70
2022/01/14 06:28:00;;;;;;;9.07;3.55;;;4.60;99.90;;;;;;6277578;22;20011;-70
2022/01/14 06:30:27;;;;;;;14.88;3.58;;;4.70;99.90;;;;;;6277577;22;20446;-70
2022/01/14 06:32:54;;;;;;;15.50;3.75;;;4.70;99.90;;;;;;6277375;22;20307;-70
2022/01/14 06:35:20;;;;;;;14.75;3.80;;;4.70;99.90;;;;;;6277931;22;20012;-70
2022/01/14 06:37:52;;;;;;;11.93;3.55;;;4.60;99.90;;;;;;6250401;22;20409;-70
2022/01/14 06:40:20;;;;;;;11.13;3.63;;;4.60;99.90;;;;;;6277398;22;20007;-70
2022/01/14 06:42:46;;;;;;;16.83;3.30;;;4.60;99.90;;;;;;6250448;22;20085;-71
2022/01/14 06:45:13;;;;;;;10.27;3.53;;;4.70;99.90;;;;;;6277272;22;20003;-71
2022/01/14 06:47:39;;;;;;;13.93;4.38;;;4.70;99.90;;;;;;6277487;22;20011;-70
2022/01/14 06:50:06;;;;;;;13.43;3.75;;;4.80;99.90;;;;;;6277224;22;20046;-71
2022/01/14 06:52:36;;;;;;;8.82;4.05;;;4.90;99.90;;;;;;6277385;22;20531;-70
2022/01/14 06:55:03;;;;;;;11.70;3.60;;;4.90;99.90;;;;;;6250152;22;20425;-71
2022/01/14 06:57:30;;;;;;;11.13;3.00;;;4.90;99.90;;;;;;6277166;22;20011;-70
2022/01/14 06:59:56;;;;;;;10.98;3.30;;;5.00;99.90;;;;;;6250032;22;20031;-70
2022/01/14 07:02:23;;;;;;;13.07;3.53;;;5.10;99.90;;;;;;6277079;22;20007;-70
2022/01/14 07:04:49;;;;;;;11.82;4.15;;;5.10;99.90;;;;;;6276922;22;20003;-70
2022/01/14 07:07:16;;;;;;;9.95;3.70;;;5.10;99.90;;;;;;6277301;22;20125;-70
2022/01/14 07:09:58;;;;;;;16.25;3.47;;;5.20;99.90;;;;;;6276965;22;20015;-71
2022/01/14 07:12:50;;;;;;;13.30;3.35;;;5.20;99.90;;;;;;6277289;22;20019;-70
2022/01/14 07:15:21;;;;;;;8.40;3.47;;;5.30;99.90;;;;;;6270774;22;20035;-71
2022/01/14 07:17:48;;;;;;;9.18;4.53;;;5.40;99.90;;;;;;6277011;22;20027;-70
2022/01/14 07:20:17;;;;;;;13.02;3.63;;;5.40;99.90;;;;;;6277123;22;20333;-71
2022/01/14 07:22:46;;;;;;;8.68;3.92;;;5.50;99.90;;;;;;6277478;22;20003;-70
2022/01/14 07:25:14;;;;;;;11.02;3.58;;;5.50;99.90;;;;;;6277147;22;19999;-71
2022/01/14 07:27:40;;;;;;;12.10;4.25;;;5.60;99.90;;;;;;6277525;22;20042;-71
2022/01/14 07:30:09;;;;;;;11.93;3.20;;;5.70;99.90;;;;;;6276983;22;20432;-70
2022/01/14 07:32:36;;;;;;;8.20;3.78;;;5.70;99.90;;;;;;6277051;22;20008;-70
2022/01/14 07:35:03;;;;;;;12.25;3.40;;;5.80;99.90;;;;;;6277172;22;19996;-70
2022/01/14 07:37:33;;;;;;;8.38;3.92;;;6.00;99.90;;;;;;6276979;22;20018;-70
2022/01/14 07:40:00;;;;;;;9.38;2.88;;;6.20;99.90;;;;;;6250204;22;20007;-70
2022/01/14 07:42:26;;;;;;;9.82;2.10;;;6.40;99.90;;;;;;6276954;22;20004;-70
2022/01/14 07:44:53;;;;;;;14.93;2.72;;;6.50;99.90;;;;;;6249794;22;20015;-70
2022/01/14 07:47:20;;;;;;;7.45;2.55;;;6.70;99.90;;;;;;6276878;22;20007;-70
2022/01/14 07:49:47;;;;;;;10.10;3.42;;;6.80;99.90;;;;;;6276883;22;20004;-71
2022/01/14 07:52:14;;;;;;;12.35;3.85;;;6.90;99.90;;;;;;6276887;22;20008;-70
2022/01/14 07:54:40;;;;;;;9.35;3.38;;;7.00;99.90;;;;;;6276752;22;20307;-70
2022/01/14 07:57:08;;;;;;;12.15;2.75;;;7.10;99.90;;;;;;6276764;22;20022;-70
2022/01/14 07:59:36;;;;;;;8.43;2.65;;;7.20;99.90;;;;;;6276972;22;20030;-71
2022/01/14 08:02:06;;;;;;;5.78;2.50;;;7.20;99.90;;;;;;6276809;22;20050;-71
2022/01/14 08:04:35;;;;;;;9.80;3.22;;;7.40;99.90;;;;;;6276854;22;20011;-70
2022/01/14 08:07:09;;;;;;;10.32;2.95;;;7.50;99.90;;;;;;6276713;22;20004;-70
2022/01/14 08:09:46;;;;;;;8.65;2.15;;;7.60;99.90;;;;;;6276729;22;20039;-70
2022/01/14 08:12:13;;;;;;;5.55;2.55;;;7.70;99.90;;;;;;6276813;22;20323;-70
2022/01/14 08:14:40;;;;;;;7.88;2.53;;;7.80;99.90;;;;;;6276831;22;20368;-70
2022/01/14 08:17:07;;;;;;;6.38;2.70;;;7.90;99.90;;;;;;6276649;22;20004;-70
2022/01/14 08:19:34;;;;;;;9.85;2.78;;;7.90;99.90;;;;;;6276824;22;20000;-70
2022/01/14 08:22:06;;;;;;;8.13;3.63;;;8.00;99.90;;;;;;6276594;22;20452;-70
2022/01/14 08:24:34;;;;;;;13.05;3.00;;;8.10;99.90;;;;;;6276592;22;20088;-70
2022/01/14 08:27:01;;;;;;;9.85;2.70;;;8.10;99.90;;;;;;6276634;22;20014;-71
2022/01/14 08:29:28;;;;;;;8.23;3.40;;;8.20;99.90;;;;;;6276626;22;20004;-70
2022/01/14 08:31:56;;;;;;;6.85;2.58;;;8.30;99.90;;;;;;6276835;22;20015;-71
2022/01/14 08:34:24;;;;;;;8.57;2.72;;;8.30;99.90;;;;;;6276654;22;20382;-70
2022/01/14 08:36:51;;;;;;;5.90;2.70;;;8.40;99.90;;;;;;6276598;22;19999;-71
2022/01/14 08:39:19;;;;;;;6.93;3.53;;;8.40;99.90;;;;;;6276382;22;20030;-70
2022/01/14 08:41:46;;;;;;;9.77;4.28;;;8.50;99.90;;;;;;6276723;22;20000;-71
2022/01/14 08:44:14;;;;;;;11.23;3.30;;;8.50;99.90;;;;;;6224443;22;20008;-71
2022/01/14 08:46:44;;;;;;;7.78;2.55;;;8.70;99.90;;;;;;6276678;22;19996;-71
2022/01/14 08:49:13;;;;;;;11.25;3.03;;;8.80;99.90;;;;;;6276597;22;19999;-70
2022/01/14 08:51:40;;;;;;;5.68;3.00;;;8.90;99.90;;;;;;6276942;22;20012;-71
2022/01/14 08:54:08;;;;;;;11.38;3.25;;;9.00;99.90;;;;;;6276646;22;20004;-71
2022/01/14 08:56:36;;;;;;;4.93;2.00;;;9.00;99.90;;;;;;6276631;22;20058;-71
2022/01/14 08:59:04;;;;;;;6.93;2.33;;;9.10;99.90;;;;;;6276496;22;20345;-71
2022/01/14 09:01:31;;;;;;;7.03;2.90;;;9.20;99.90;;;;;;6276913;22;20481;-71
2022/01/14 09:03:58;;;;;;;7.75;2.80;;;9.20;99.90;;;;;;6276570;22;20018;-71
2022/01/14 09:06:25;;;;;;;9.43;2.80;;;9.20;99.90;;;;;;6276436;22;20421;-71
2022/01/14 09:08:51;;;;;;;7.05;2.45;;;9.20;99.90;;;;;;6277886;22;20043;-71
2022/01/14 09:11:18;;;;;;;10.63;3.33;;;9.10;99.90;;;;;;6278313;22;20011;-71
2022/01/14 09:13:45;;;;;;;10.35;3.22;;;9.10;99.90;;;;;;6278457;22;19999;-71
2022/01/14 09:16:12;;;;;;;9.98;3.15;;;9.10;99.90;;;;;;6278274;22;20008;-71
2022/01/14 09:18:39;;;;;;;6.20;3.03;;;9.20;99.90;;;;;;6278220;22;20387;-70
2022/01/14 09:21:05;;;;;;;9.48;4.05;;;9.20;99.90;;;;;;6278273;22;20167;-71
2022/01/14 09:23:34;;;;;;;9.63;4.10;;;9.20;99.90;;;;;;6278246;22;20328;-70
2022/01/14 09:26:01;;;;;;;6.80;3.78;;;9.20;99.90;;;;;;6278333;22;19996;-71
2022/01/14 09:28:28;;;;;;;9.57;2.95;;;9.30;99.90;;;;;;6278171;22;20330;-71
2022/01/14 09:30:55;;;;;;;9.30;3.00;;;9.30;99.90;;;;;;6278151;22;20075;-71
2022/01/14 09:33:22;;;;;;;13.18;4.47;;;9.40;99.90;;;;;;6278030;22;20011;-71
2022/01/14 09:35:49;;;;;;;4.82;2.55;;;9.60;99.90;;;;;;6278073;22;20325;-71
2022/01/14 09:38:16;;;;;;;5.00;2.60;;;9.70;99.90;;;;;;6278466;22;20018;-71
2022/01/14 09:40:49;;;;;;;6.57;2.03;;;9.70;99.90;;;;;;6278279;22;20000;-71
2022/01/14 09:43:16;;;;;;;8.43;2.17;;;9.80;99.90;;;;;;6278060;22;20011;-70
2022/01/14 09:45:43;;;;;;;4.78;2.85;;;9.90;99.90;;;;;;6278063;22;20007;-71
2022/01/14 09:48:15;;;;;;;3.58;1.83;;;9.90;99.90;;;;;;6278457;22;20077;-71
2022/01/14 09:50:44;;;;;;;11.02;2.22;;;10.00;99.90;;;;;;6278200;22;20062;-71
2022/01/14 09:53:17;;;;;;;7.30;3.03;;;10.10;99.90;;;;;;6278236;22;20003;-71
2022/01/14 09:55:44;;;;;;;8.15;2.58;;;10.20;99.90;;;;;;6277844;22;20011;-70
2022/01/14 09:58:10;;;;;;;5.70;2.13;;;10.30;99.90;;;;;;6277943;22;20007;-70
2022/01/14 10:00:37;;;;;;;8.50;2.10;;;10.30;99.90;;;;;;6278277;22;20010;-70
2022/01/14 10:03:25;;;;;;;7.18;2.08;;;10.50;99.90;;;;;;6277757;22;20003;-70
2022/01/14 10:05:57;;;;;;;3.05;1.77;;;10.60;99.90;;;;;;6247639;23;20004;-70
2022/01/14 10:08:27;;;;;;;6.13;2.70;;;10.70;99.90;;;;;;6247087;23;20044;-71
2022/01/14 10:11:00;;;;;;;8.63;2.42;;;10.80;99.90;;;;;;6247276;23;20011;-70
2022/01/14 10:13:32;;;;;;;6.53;2.10;;;10.90;99.90;;;;;;6220430;23;20008;-70
2022/01/14 10:16:05;;;;;;;3.65;1.55;;;10.90;99.90;;;;;;6247156;23;20405;-70
2022/01/14 10:18:33;;;;;;;10.50;3.17;;;11.00;99.90;;;;;;6246764;23;20012;-70
2022/01/14 10:21:03;;;;;;;5.80;1.98;;;11.00;99.90;;;;;;6220289;23;20004;-70
2022/01/14 10:23:52;;;;;;;5.30;2.03;;;11.20;99.90;;;;;;6247224;23;20031;-70
2022/01/14 10:26:20;;;;;;;2.55;0.90;;;11.30;99.90;;;;;;6247128;23;20004;-70
2022/01/14 10:29:08;;;;;;;14.93;1.38;;;11.50;99.90;;;;;;6246887;23;20012;-71
2022/01/14 10:31:37;;;;;;;4.05;1.45;;;11.60;99.90;;;;;;6246992;23;20015;-70
2022/01/14 10:34:16;;;;;;;4.57;1.65;;;11.60;99.90;;;;;;6220074;23;20008;-70
2022/01/14 10:36:45;;;;;;;4.85;1.05;;;11.50;99.90;;;;;;6246909;23;20026;-70
2022/01/14 10:39:46;;;;;;;4.70;1.42;;;11.60;99.90;;;;;;6246799;23;20370;-70
2022/01/14 10:42:28;;;;;;;4.65;1.10;;;11.70;99.90;;;;;;6095744;23;20398;-70
2022/01/14 10:45:13;;;;;;;6.57;1.40;;;11.70;99.90;;;;;;6095427;23;20014;-70
2022/01/14 10:47:40;;;;;;;4.43;1.30;;;11.70;99.90;;;;;;6095599;23;20078;-70
2022/01/14 10:50:07;;;;;;;6.65;1.83;;;11.80;99.90;;;;;;6095499;23;20126;-70
2022/01/14 10:52:33;;;;;;;3.75;0.82;;;11.80;99.90;;;;;;6095436;23;20021;-70
2022/01/14 10:55:00;;;;;;;5.43;0.60;;;11.70;99.90;;;;;;6095311;23;20010;-70
2022/01/14 10:57:32;;;;;;;6.55;2.08;;;11.70;99.90;;;;;;6095188;23;20033;-70
2022/01/14 11:00:19;;;;;;;10.15;1.17;;;11.80;99.90;;;;;;6072003;23;20398;-70
2022/01/14 11:02:48;;;;;;;12.45;1.90;;;11.80;99.90;;;;;;6095433;23;20013;-70
2022/01/14 11:05:20;;;;;;;2.50;1.25;;;12.00;99.90;;;;;;6095149;23;20006;-70
2022/01/14 11:07:50;;;;;;;4.10;1.25;;;12.00;99.90;;;;;;6095174;23;20017;-70
2022/01/14 11:10:38;;;;;;;11.10;1.33;;;12.10;99.90;;;;;;6095310;23;20118;-70
2022/01/14 11:13:11;;;;;;;1.08;0.82;;;12.10;99.90;;;;;;6095522;23;20014;-70
2022/01/14 11:15:38;;;;;;;8.05;1.20;;;12.10;99.90;;;;;;6095360;23;20010;-70
2022/01/14 11:18:07;;;;;;;5.60;1.45;;;12.20;99.90;;;;;;6117261;23;20426;-70
2022/01/14 11:23:14;;;;;;;2.92;1.60;;;12.20;99.90;;;;;;6216203;23;20525;-70
2022/01/14 11:23:22;;;;;;;5.22;2.03;;;12.10;99.90;;;;;;6213849;23;20019;-70
2022/01/14 11:26:15;;;;;;;3.55;0.90;;;12.00;99.90;;;;;;6216266;23;20299;-70
2022/01/14 11:28:46;;;;;;;4.03;1.23;;;12.10;99.90;;;;;;6214684;23;20011;-70
2022/01/14 11:31:30;;;;;;;5.32;1.42;;;12.10;99.90;;;;;;6215998;23;20015;-70
2022/01/14 11:33:59;;;;;;;6.35;1.20;;;12.20;99.90;;;;;;6216160;23;20497;-70
2022/01/14 11:36:45;;;;;;;8.10;1.85;;;12.20;99.90;;;;;;6214620;23;20374;-70
2022/01/14 11:39:27;;;;;;;3.72;1.65;;;12.10;99.90;;;;;;6216317;23;20446;-70
2022/01/14 11:41:59;;;;;;;5.28;1.70;;;12.20;99.90;;;;;;6216185;23;20004;-71
2022/01/14 11:45:06;;;;;;;3.65;1.52;;;12.20;99.90;;;;;;6216415;23;20012;-70
2022/01/14 11:47:41;;;;;;;9.23;2.53;;;12.30;99.90;;;;;;6215873;23;20359;-71
2022/01/14 11:50:30;;;;;;;15.57;3.72;;;12.40;99.90;;;;;;6216458;23;20008;-70
2022/01/14 11:52:59;;;;;;;6.03;2.45;;;12.40;99.90;;;;;;6200529;23;20004;-70
2022/01/14 11:55:31;;;;;;;7.82;2.50;;;12.30;99.90;;;;;;6214537;23;20008;-70
2022/01/14 11:58:12;;;;;;;8.77;2.20;;;12.10;99.90;;;;;;6215912;23;20032;-70
2022/01/14 12:00:42;;;;;;;6.72;2.05;;;12.10;99.90;;;;;;6216012;23;20024;-71
2022/01/14 12:03:15;;;;;;;11.27;3.15;;;12.10;99.90;;;;;;6215894;23;20047;-70
2022/01/14 12:05:53;;;;;;;14.43;3.55;;;12.20;99.90;;;;;;6216300;23;20005;-70
2022/01/14 12:08:25;;;;;;;3.88;1.80;;;12.20;99.90;;;;;;6222721;23;20004;-70
2022/01/14 12:11:16;;;;;;;7.07;3.17;;;12.10;99.90;;;;;;6246277;23;20433;-70
2022/01/14 12:14:01;;;;;;;8.88;1.85;;;12.20;99.90;;;;;;6246205;23;20077;-70
2022/01/14 12:16:45;;;;;;;5.57;2.17;;;12.10;99.90;;;;;;6246271;23;20015;-70
2022/01/14 12:19:16;;;;;;;7.65;2.47;;;12.10;99.90;;;;;;6246077;23;20044;-70
2022/01/14 12:21:50;;;;;;;6.22;2.20;;;12.00;99.90;;;;;;6219454;23;20418;-70
2022/01/14 12:24:30;;;;;;;5.40;1.88;;;12.00;99.90;;;;;;6246522;23;20010;-70
2022/01/14 12:27:00;;;;;;;8.95;1.90;;;12.10;99.90;;;;;;6219363;23;20342;-71
2022/01/14 12:29:35;;;;;;;5.30;2.00;;;12.10;99.90;;;;;;6246025;23;20062;-70
2022/01/14 12:32:15;;;;;;;6.30;2.70;;;12.00;99.90;;;;;;6246419;23;20456;-71
2022/01/14 12:35:06;;;;;;;6.22;2.33;;;12.00;99.90;;;;;;6246517;23;20004;-70
2022/01/14 12:37:39;;;;;;;5.55;2.60;;;12.10;99.90;;;;;;6245935;23;20014;-70
2022/01/14 12:40:22;;;;;;;5.45;1.70;;;12.00;99.90;;;;;;6246154;23;20039;-70
2022/01/14 12:43:03;;;;;;;6.32;1.48;;;12.10;99.90;;;;;;6247047;23;20016;-71
2022/01/14 12:46:11;;;;;;;5.25;2.15;;;12.20;99.90;;;;;;6247819;23;20015;-70
2022/01/14 12:48:50;;;;;;;7.20;2.22;;;12.30;99.90;;;;;;6247996;23;20484;-70
2022/01/14 12:51:20;;;;;;;6.80;1.60;;;12.30;99.90;;;;;;6248453;23;20015;-71
2022/01/14 12:53:53;;;;;;;7.07;2.17;;;12.30;99.90;;;;;;6195971;23;20386;-71
2022/01/14 12:56:23;;;;;;;5.72;1.85;;;12.40;99.90;;;;;;6247969;23;20000;-70
2022/01/14 12:59:03;;;;;;;4.90;1.33;;;12.30;99.90;;;;;;6247780;23;20099;-71
2022/01/14 13:01:33;;;;;;;4.82;1.40;;;12.30;99.90;;;;;;6247979;23;20325;-70
2022/01/14 13:04:04;;;;;;;2.97;2.08;;;12.30;99.90;;;;;;6220889;23;20008;-70
2022/01/14 13:06:51;;;;;;;12.50;1.95;;;12.30;99.90;;;;;;6247927;23;20000;-70
2022/01/14 13:09:24;;;;;;;5.32;1.80;;;12.40;99.90;;;;;;6247571;23;20061;-70
2022/01/14 13:11:54;;;;;;;4.82;1.15;;;12.30;99.90;;;;;;6247533;23;20043;-70
2022/01/14 13:14:30;;;;;;;4.43;1.05;;;12.30;99.90;;;;;;6248034;23;20007;-70
2022/01/14 13:17:01;;;;;;;7.35;1.75;;;12.20;99.90;;;;;;6247617;23;20016;-70
2022/01/14 13:19:31;;;;;;;13.25;2.45;;;12.10;99.90;;;;;;6247603;23;20016;-69
2022/01/14 13:21:59;;;;;;;6.28;2.55;;;12.10;99.90;;;;;;6247554;23;20527;-69
2022/01/14 13:24:32;;;;;;;8.38;1.95;;;12.10;99.90;;;;;;6247772;23;20008;-70
2022/01/14 13:27:11;;;;;;;4.93;1.58;;;12.10;99.90;;;;;;6247626;23;20004;-69
2022/01/14 13:29:48;;;;;;;7.43;2.45;;;12.20;99.90;;;;;;6247866;23;20083;-69